sensor_id;sensor_type;location;lat;lon;timestamp;pressure;altitude;pressure_sealevel;temperature;humidity
48630;BME280;34426;52.180;4.462;2024-02-21T00:02:06;102214.88;;;9.20;100.00
48630;BME280;34426;52.180;4.462;2024-02-21T00:04:31;102214.00;;;9.19;100.00
48630;BME280;34426;52.180;4.462;2024-02-21T00:06:57;102213.16;;;9.19;100.00
48630;BME280;34426;52.180;4.462;2024-02-21T00:09:22;102218.53;;;9.20;100.00
48630;BME280;34426;52.180;4.462;2024-02-21T00:11:48;102208.44;;;9.19;100.00
48630;BME280;34426;52.180;4.462;2024-02-21T00:14:13;102192.53;;;9.20;100.00
48630;BME280;34426;52.180;4.462;2024-02-21T00:16:38;102198.13;;;9.20;100.00
48630;BME280;34426;52.180;4.462;2024-02-21T00:19:05;102220.44;;;9.20;100.00
48630;BME280;34426;52.180;4.462;2024-02-21T00:21:31;102220.00;;;9.23;100.00
48630;BME280;34426;52.180;4.462;2024-02-21T00:23:56;102220.88;;;9.23;100.00
48630;BME280;34426;52.180;4.462;2024-02-21T00:26:22;102215.28;;;9.23;100.00
48630;BME280;34426;52.180;4.462;2024-02-21T00:28:47;102218.53;;;9.20;100.00
48630;BME280;34426;52.180;4.462;2024-02-21T00:31:13;102218.75;;;9.19;100.00
48630;BME280;34426;52.180;4.462;2024-02-21T00:33:38;102212.09;;;9.20;100.00
48630;BME280;34426;52.180;4.462;2024-02-21T00:36:05;102204.78;;;9.19;100.00
48630;BME280;34426;52.180;4.462;2024-02-21T00:38:31;102201.59;;;9.15;100.00
48630;BME280;34426;52.180;4.462;2024-02-21T00:40:56;102199.88;;;9.14;100.00
48630;BME280;34426;52.180;4.462;2024-02-21T00:43:22;102192.59;;;9.13;100.00
48630;BME280;34426;52.180;4.462;2024-02-21T00:45:47;102205.06;;;9.11;100.00
48630;BME280;34426;52.180;4.462;2024-02-21T00:48:13;102206.16;;;9.10;100.00
48630;BME280;34426;52.180;4.462;2024-02-21T00:50:38;102200.59;;;9.10;100.00
48630;BME280;34426;52.180;4.462;2024-02-21T00:53:05;102204.19;;;9.10;100.00
48630;BME280;34426;52.180;4.462;2024-02-21T00:55:30;102202.91;;;9.13;100.00
48630;BME280;34426;52.180;4.462;2024-02-21T00:57:56;102205.47;;;9.14;100.00
48630;BME280;34426;52.180;4.462;2024-02-21T01:00:21;102196.00;;;9.15;100.00
48630;BME280;34426;52.180;4.462;2024-02-21T01:02:47;102192.13;;;9.16;100.00
48630;BME280;34426;52.180;4.462;2024-02-21T01:05:12;102188.25;;;9.17;100.00
48630;BME280;34426;52.180;4.462;2024-02-21T01:07:38;102178.81;;;9.18;100.00
48630;BME280;34426;52.180;4.462;2024-02-21T01:10:06;102179.88;;;9.17;100.00
48630;BME280;34426;52.180;4.462;2024-02-21T01:12:32;102178.81;;;9.18;100.00
48630;BME280;34426;52.180;4.462;2024-02-21T01:14:57;102170.22;;;9.20;100.00
48630;BME280;34426;52.180;4.462;2024-02-21T01:17:22;102181.59;;;9.18;100.00
48630;BME280;34426;52.180;4.462;2024-02-21T01:19:48;102164.63;;;9.20;100.00
48630;BME280;34426;52.180;4.462;2024-02-21T01:22:13;102156.03;;;9.21;100.00
48630;BME280;34426;52.180;4.462;2024-02-21T01:24:39;102162.47;;;9.22;100.00
48630;BME280;34426;52.180;4.462;2024-02-21T01:27:05;102167.19;;;9.21;100.00
48630;BME280;34426;52.180;4.462;2024-02-21T01:29:31;102152.16;;;9.22;100.00
48630;BME280;34426;52.180;4.462;2024-02-21T01:31:56;102149.59;;;9.21;100.00
48630;BME280;34426;52.180;4.462;2024-02-21T01:34:22;102148.72;;;9.20;100.00
48630;BME280;34426;52.180;4.462;2024-02-21T01:36:47;102147.03;;;9.19;100.00
48630;BME280;34426;52.180;4.462;2024-02-21T01:39:13;102155.16;;;9.21;100.00
48630;BME280;34426;52.180;4.462;2024-02-21T01:41:38;102153.47;;;9.20;100.00
48630;BME280;34426;52.180;4.462;2024-02-21T01:44:05;102156.47;;;9.18;100.00
48630;BME280;34426;52.180;4.462;2024-02-21T01:46:31;102153.47;;;9.20;100.00
48630;BME280;34426;52.180;4.462;2024-02-21T01:48:57;102157.72;;;9.22;100.00
48630;BME280;34426;52.180;4.462;2024-02-21T01:51:22;102141.44;;;9.19;100.00
48630;BME280;34426;52.180;4.462;2024-02-21T01:53:50;102128.56;;;9.18;100.00
48630;BME280;34426;52.180;4.462;2024-02-21T01:56:16;102136.31;;;9.16;100.00
48630;BME280;34426;52.180;4.462;2024-02-21T01:58:42;102129.00;;;9.15;100.00
48630;BME280;34426;52.180;4.462;2024-02-21T02:01:10;102122.97;;;9.18;100.00
48630;BME280;34426;52.180;4.462;2024-02-21T02:03:36;102115.69;;;9.17;100.00
48630;BME280;34426;52.180;4.462;2024-02-21T02:06:05;102121.28;;;9.17;100.00
48630;BME280;34426;52.180;4.462;2024-02-21T02:08:31;102118.69;;;9.16;100.00
48630;BME280;34426;52.180;4.462;2024-02-21T02:10:57;102117.84;;;9.15;100.00
48630;BME280;34426;52.180;4.462;2024-02-21T02:13:22;102116.13;;;9.14;100.00
48630;BME280;34426;52.180;4.462;2024-02-21T02:15:48;102108.38;;;9.16;100.00
48630;BME280;34426;52.180;4.462;2024-02-21T02:18:17;102109.94;;;9.12;100.00
48630;BME280;34426;52.180;4.462;2024-02-21T02:20:43;102111.88;;;9.12;100.00
48630;BME280;34426;52.180;4.462;2024-02-21T02:23:10;102117.66;;;9.10;100.00
48630;BME280;34426;52.180;4.462;2024-02-21T02:25:38;102095.97;;;9.12;100.00
48630;BME280;34426;52.180;4.462;2024-02-21T02:28:04;102098.75;;;9.12;100.00
48630;BME280;34426;52.180;4.462;2024-02-21T02:30:32;102093.81;;;9.14;100.00
48630;BME280;34426;52.180;4.462;2024-02-21T02:32:57;102086.50;;;9.13;100.00
48630;BME280;34426;52.180;4.462;2024-02-21T02:35:23;102092.09;;;9.13;100.00
48630;BME280;34426;52.180;4.462;2024-02-21T02:37:48;102083.50;;;9.15;100.00
48630;BME280;34426;52.180;4.462;2024-02-21T02:40:14;102086.06;;;9.16;100.00
48630;BME280;34426;52.180;4.462;2024-02-21T02:42:41;102086.06;;;9.16;100.00
48630;BME280;34426;52.180;4.462;2024-02-21T02:45:07;102085.22;;;9.16;100.00
48630;BME280;34426;52.180;4.462;2024-02-21T02:47:33;102074.28;;;9.14;100.00
48630;BME280;34426;52.180;4.462;2024-02-21T02:49:58;102078.78;;;9.15;100.00
48630;BME280;34426;52.180;4.462;2024-02-21T02:52:24;102071.03;;;9.17;100.00
48630;BME280;34426;52.180;4.462;2024-02-21T02:54:49;102060.72;;;9.18;100.00
48630;BME280;34426;52.180;4.462;2024-02-21T02:57:15;102061.56;;;9.18;100.00
48630;BME280;34426;52.180;4.462;2024-02-21T02:59:41;102053.19;;;9.18;100.00
48630;BME280;34426;52.180;4.462;2024-02-21T03:02:07;102062.03;;;9.15;100.00
48630;BME280;34426;52.180;4.462;2024-02-21T03:04:32;102044.41;;;9.15;100.00
48630;BME280;34426;52.180;4.462;2024-02-21T03:06:58;102054.72;;;9.14;100.00
48630;BME280;34426;52.180;4.462;2024-02-21T03:09:23;102040.31;;;9.17;100.00
48630;BME280;34426;52.180;4.462;2024-02-21T03:11:52;102044.81;;;9.18;100.00
48630;BME280;34426;52.180;4.462;2024-02-21T03:14:17;102029.78;;;9.19;100.00
48630;BME280;34426;52.180;4.462;2024-02-21T03:16:44;102025.50;;;9.17;100.00
48630;BME280;34426;52.180;4.462;2024-02-21T03:19:10;102017.13;;;9.17;100.00
48630;BME280;34426;52.180;4.462;2024-02-21T03:21:35;102011.78;;;9.15;100.00
48630;BME280;34426;52.180;4.462;2024-02-21T03:24:00;102017.38;;;9.15;100.00
48630;BME280;34426;52.180;4.462;2024-02-21T03:26:26;102022.94;;;9.15;100.00
48630;BME280;34426;52.180;4.462;2024-02-21T03:28:51;102020.38;;;9.14;100.00
48630;BME280;34426;52.180;4.462;2024-02-21T03:31:17;102016.28;;;9.16;100.00
48630;BME280;34426;52.180;4.462;2024-02-21T03:33:44;102006.19;;;9.15;100.00
48630;BME280;34426;52.180;4.462;2024-02-21T03:36:13;101998.91;;;9.14;100.00
48630;BME280;34426;52.180;4.462;2024-02-21T03:38:38;102006.66;;;9.12;100.00
48630;BME280;34426;52.180;4.462;2024-02-21T03:41:04;101992.69;;;9.12;100.00
48630;BME280;34426;52.180;4.462;2024-02-21T03:43:29;101997.19;;;9.13;100.00
48630;BME280;34426;52.180;4.462;2024-02-21T03:45:55;101991.63;;;9.13;100.00
48630;BME280;34426;52.180;4.462;2024-02-21T03:48:20;101995.50;;;9.12;100.00
48630;BME280;34426;52.180;4.462;2024-02-21T03:50:47;101991.63;;;9.13;100.00
48630;BME280;34426;52.180;4.462;2024-02-21T03:53:12;101995.25;;;9.14;100.00
48630;BME280;34426;52.180;4.462;2024-02-21T03:55:38;101989.06;;;9.12;100.00
48630;BME280;34426;52.180;4.462;2024-02-21T03:58:03;101980.44;;;9.13;100.00
48630;BME280;34426;52.180;4.462;2024-02-21T04:00:29;101979.38;;;9.14;100.00
48630;BME280;34426;52.180;4.462;2024-02-21T04:02:54;101975.50;;;9.15;100.00
48630;BME280;34426;52.180;4.462;2024-02-21T04:05:19;101985.81;;;9.15;100.00
48630;BME280;34426;52.180;4.462;2024-02-21T04:07:46;101974.03;;;9.13;100.00
48630;BME280;34426;52.180;4.462;2024-02-21T04:10:12;101993.09;;;9.16;100.00
48630;BME280;34426;52.180;4.462;2024-02-21T04:12:38;101990.53;;;9.14;100.00
48630;BME280;34426;52.180;4.462;2024-02-21T04:15:03;101995.03;;;9.15;100.00
48630;BME280;34426;52.180;4.462;2024-02-21T04:17:29;101997.19;;;9.13;100.00
48630;BME280;34426;52.180;4.462;2024-02-21T04:20:02;101979.38;;;9.14;100.00
48630;BME280;34426;52.180;4.462;2024-02-21T04:22:27;101983.88;;;9.15;100.00
48630;BME280;34426;52.180;4.462;2024-02-21T04:24:54;101979.13;;;9.16;100.00
48630;BME280;34426;52.180;4.462;2024-02-21T04:27:20;101967.97;;;9.16;100.00
48630;BME280;34426;52.180;4.462;2024-02-21T04:29:45;101968.19;;;9.14;100.00
48630;BME280;34426;52.180;4.462;2024-02-21T04:32:11;101962.00;;;9.12;100.00
48630;BME280;34426;52.180;4.462;2024-02-21T04:34:36;101968.66;;;9.11;100.00
48630;BME280;34426;52.180;4.462;2024-02-21T04:37:01;101965.41;;;9.14;100.00
48630;BME280;34426;52.180;4.462;2024-02-21T04:39:27;101954.88;;;9.16;100.00
48630;BME280;34426;52.180;4.462;2024-02-21T04:41:54;101950.38;;;9.15;100.00
48630;BME280;34426;52.180;4.462;2024-02-21T04:44:19;101953.16;;;9.15;100.00
48630;BME280;34426;52.180;4.462;2024-02-21T04:46:44;101943.94;;;9.15;100.00
48630;BME280;34426;52.180;4.462;2024-02-21T04:49:10;101942.47;;;9.12;100.00
48630;BME280;34426;52.180;4.462;2024-02-21T04:51:35;101952.06;;;9.16;100.00
48630;BME280;34426;52.180;4.462;2024-02-21T04:54:01;101946.72;;;9.15;100.00
48630;BME280;34426;52.180;4.462;2024-02-21T04:56:26;101943.09;;;9.14;100.00
48630;BME280;34426;52.180;4.462;2024-02-21T04:58:53;101946.09;;;9.13;100.00
48630;BME280;34426;52.180;4.462;2024-02-21T05:01:18;101928.50;;;9.12;100.00
48630;BME280;34426;52.180;4.462;2024-02-21T05:03:44;101919.03;;;9.13;100.00
48630;BME280;34426;52.180;4.462;2024-02-21T05:06:09;101914.56;;;9.12;100.00
48630;BME280;34426;52.180;4.462;2024-02-21T05:08:35;101912.63;;;9.13;100.00
48630;BME280;34426;52.180;4.462;2024-02-21T05:11:00;101904.25;;;9.13;100.00
48630;BME280;34426;52.180;4.462;2024-02-21T05:13:26;101907.88;;;9.13;100.00
48630;BME280;34426;52.180;4.462;2024-02-21T05:15:53;101909.59;;;9.14;100.00
48630;BME280;34426;52.180;4.462;2024-02-21T05:18:18;101905.72;;;9.15;100.00
48630;BME280;34426;52.180;4.462;2024-02-21T05:20:44;101896.72;;;9.13;100.00
48630;BME280;34426;52.180;4.462;2024-02-21T05:23:09;101888.22;;;9.08;100.00
48630;BME280;34426;52.180;4.462;2024-02-21T05:25:34;101882.16;;;9.11;100.00
48630;BME280;34426;52.180;4.462;2024-02-21T05:28:00;101882.41;;;9.10;100.00
48630;BME280;34426;52.180;4.462;2024-02-21T05:30:25;101878.75;;;9.09;100.00
48630;BME280;34426;52.180;4.462;2024-02-21T05:32:52;101879.34;;;9.11;100.00
48630;BME280;34426;52.180;4.462;2024-02-21T05:35:17;101863.69;;;9.10;100.00
48630;BME280;34426;52.180;4.462;2024-02-21T05:37:43;101855.59;;;9.09;100.00
48630;BME280;34426;52.180;4.462;2024-02-21T05:40:10;101855.59;;;9.09;100.00
48630;BME280;34426;52.180;4.462;2024-02-21T05:42:35;101849.00;;;9.03;100.00
48630;BME280;34426;52.180;4.462;2024-02-21T05:45:01;101851.31;;;9.06;100.00
48630;BME280;34426;52.180;4.462;2024-02-21T05:47:26;101844.97;;;8.99;100.00
48630;BME280;34426;52.180;4.462;2024-02-21T05:49:53;101843.66;;;9.02;100.00
48630;BME280;34426;52.180;4.462;2024-02-21T05:52:18;101840.16;;;9.06;100.00
48630;BME280;34426;52.180;4.462;2024-02-21T05:54:44;101829.00;;;9.06;100.00
48630;BME280;34426;52.180;4.462;2024-02-21T05:57:09;101844.88;;;9.06;100.00
48630;BME280;34426;52.180;4.462;2024-02-21T05:59:35;101835.03;;;9.03;100.00
48630;BME280;34426;52.180;4.462;2024-02-21T06:02:00;101826.44;;;9.05;100.00
48630;BME280;34426;52.180;4.462;2024-02-21T06:04:25;101833.34;;;9.02;100.00
48630;BME280;34426;52.180;4.462;2024-02-21T06:06:52;101829.94;;;9.00;100.00
48630;BME280;34426;52.180;4.462;2024-02-21T06:09:18;101834.41;;;9.01;100.00
48630;BME280;34426;52.180;4.462;2024-02-21T06:11:43;101835.28;;;9.02;100.00
48630;BME280;34426;52.180;4.462;2024-02-21T06:14:09;101834.41;;;9.01;100.00
48630;BME280;34426;52.180;4.462;2024-02-21T06:16:34;101836.13;;;9.02;100.00
48630;BME280;34426;52.180;4.462;2024-02-21T06:18:59;101841.09;;;9.00;100.00
48630;BME280;34426;52.180;4.462;2024-02-21T06:21:29;101845.81;;;8.99;100.00
48630;BME280;34426;52.180;4.462;2024-02-21T06:23:55;101840.84;;;9.02;100.00
48630;BME280;34426;52.180;4.462;2024-02-21T06:26:21;101841.72;;;9.02;100.00
48630;BME280;34426;52.180;4.462;2024-02-21T06:28:46;101842.78;;;9.01;100.00
48630;BME280;34426;52.180;4.462;2024-02-21T06:31:12;101839.38;;;8.99;100.00
48630;BME280;34426;52.180;4.462;2024-02-21T06:33:37;101843.03;;;8.99;100.00
48630;BME280;34426;52.180;4.462;2024-02-21T06:36:03;101840.00;;;9.01;100.00
48630;BME280;34426;52.180;4.462;2024-02-21T06:38:28;101843.66;;;9.02;100.00
48630;BME280;34426;52.180;4.462;2024-02-21T06:40:55;101840.63;;;9.03;100.00
48630;BME280;34426;52.180;4.462;2024-02-21T06:43:21;101823.03;;;9.03;100.00
48630;BME280;34426;52.180;4.462;2024-02-21T06:45:46;101824.72;;;9.04;100.00
48630;BME280;34426;52.180;4.462;2024-02-21T06:48:12;101820.84;;;9.05;100.00
48630;BME280;34426;52.180;4.462;2024-02-21T06:50:37;101807.13;;;9.03;100.00
48630;BME280;34426;52.180;4.462;2024-02-21T06:53:03;101810.41;;;9.00;100.00
48630;BME280;34426;52.180;4.462;2024-02-21T06:55:28;101812.56;;;8.98;100.00
48630;BME280;34426;52.180;4.462;2024-02-21T06:57:55;101805.91;;;8.99;100.00
48630;BME280;34426;52.180;4.462;2024-02-21T07:00:21;101797.53;;;8.99;100.00
48630;BME280;34426;52.180;4.462;2024-02-21T07:02:48;101804.81;;;9.00;100.00
48630;BME280;34426;52.180;4.462;2024-02-21T07:05:13;101791.94;;;8.99;100.00
48630;BME280;34426;52.180;4.462;2024-02-21T07:07:39;101784.44;;;8.99;100.00
48630;BME280;34426;52.180;4.462;2024-02-21T07:10:05;101788.31;;;8.98;100.00
48630;BME280;34426;52.180;4.462;2024-02-21T07:12:30;101786.13;;;9.00;100.00
48630;BME280;34426;52.180;4.462;2024-02-21T07:14:58;101776.91;;;9.00;100.00
48630;BME280;34426;52.180;4.462;2024-02-21T07:17:24;101778.84;;;8.99;100.00
48630;BME280;34426;52.180;4.462;2024-02-21T07:19:49;101772.19;;;9.00;100.00
48630;BME280;34426;52.180;4.462;2024-02-21T07:22:14;101774.13;;;9.00;100.00
48630;BME280;34426;52.180;4.462;2024-02-21T07:24:40;101771.47;;;9.05;100.00
48630;BME280;34426;52.180;4.462;2024-02-21T07:27:05;101754.75;;;9.05;100.00
48630;BME280;34426;52.180;4.462;2024-02-21T07:29:31;101749.38;;;9.04;100.00
48630;BME280;34426;52.180;4.462;2024-02-21T07:31:58;101745.28;;;9.06;100.00
48630;BME280;34426;52.180;4.462;2024-02-21T07:34:23;101738.00;;;9.05;100.00
48630;BME280;34426;52.180;4.462;2024-02-21T07:36:48;101744.03;;;9.02;100.00
48630;BME280;34426;52.180;4.462;2024-02-21T07:39:14;101739.06;;;9.04;100.00
48630;BME280;34426;52.180;4.462;2024-02-21T07:41:39;101749.53;;;9.09;100.00
48630;BME280;34426;52.180;4.462;2024-02-21T07:44:05;101745.75;;;9.03;100.00
48630;BME280;34426;52.180;4.462;2024-02-21T07:46:30;101735.19;;;9.05;100.00
48630;BME280;34426;52.180;4.462;2024-02-21T07:48:57;101721.25;;;9.05;100.00
48630;BME280;34426;52.180;4.462;2024-02-21T07:51:27;101711.03;;;8.99;100.00
48630;BME280;34426;52.180;4.462;2024-02-21T07:53:52;101721.56;;;8.97;100.00
48630;BME280;34426;52.180;4.462;2024-02-21T07:56:18;101709.94;;;9.00;100.00
48630;BME280;34426;52.180;4.462;2024-02-21T07:58:43;101714.28;;;8.96;100.00
48630;BME280;34426;52.180;4.462;2024-02-21T08:01:09;101704.22;;;8.95;100.00
48630;BME280;34426;52.180;4.462;2024-02-21T08:03:35;101709.78;;;8.95;100.00
48630;BME280;34426;52.180;4.462;2024-02-21T08:06:03;101716.59;;;8.99;100.00
48630;BME280;34426;52.180;4.462;2024-02-21T08:08:28;101702.03;;;8.97;100.00
48630;BME280;34426;52.180;4.462;2024-02-21T08:10:54;101706.38;;;8.93;100.00
48630;BME280;34426;52.180;4.462;2024-02-21T08:13:19;101698.63;;;8.95;100.00
48630;BME280;34426;52.180;4.462;2024-02-21T08:15:45;101694.75;;;8.96;100.00
48630;BME280;34426;52.180;4.462;2024-02-21T08:18:10;101685.31;;;8.97;100.00
48630;BME280;34426;52.180;4.462;2024-02-21T08:20:36;101679.25;;;9.00;100.00
48630;BME280;34426;52.180;4.462;2024-02-21T08:23:03;101680.94;;;9.01;100.00
48630;BME280;34426;52.180;4.462;2024-02-21T08:25:28;101686.06;;;9.04;100.00
48630;BME280;34426;52.180;4.462;2024-02-21T08:27:57;101683.03;;;9.06;100.00
48630;BME280;34426;52.180;4.462;2024-02-21T08:30:22;101662.41;;;9.07;100.00
48630;BME280;34426;52.180;4.462;2024-02-21T08:32:48;101661.66;;;8.99;100.00
48630;BME280;34426;52.180;4.462;2024-02-21T08:35:13;101659.38;;;9.08;100.00
48630;BME280;34426;52.180;4.462;2024-02-21T08:37:39;101657.16;;;9.10;100.00
48630;BME280;34426;52.180;4.462;2024-02-21T08:40:07;101661.09;;;9.09;100.00
48630;BME280;34426;52.180;4.462;2024-02-21T08:42:32;101655.59;;;9.14;100.00
48630;BME280;34426;52.180;4.462;2024-02-21T08:44:58;101655.22;;;9.11;100.00
48630;BME280;34426;52.180;4.462;2024-02-21T08:47:23;101646.75;;;9.17;100.00
48630;BME280;34426;52.180;4.462;2024-02-21T08:49:48;101648.13;;;9.26;100.00
48630;BME280;34426;52.180;4.462;2024-02-21T08:52:14;101652.59;;;9.27;100.00
48630;BME280;34426;52.180;4.462;2024-02-21T08:54:39;101638.88;;;9.26;100.00
48630;BME280;34426;52.180;4.462;2024-02-21T08:57:06;101637.19;;;9.25;100.00
48630;BME280;34426;52.180;4.462;2024-02-21T08:59:32;101629.44;;;9.27;100.00
48630;BME280;34426;52.180;4.462;2024-02-21T09:01:57;101631.59;;;9.25;100.00
48630;BME280;34426;52.180;4.462;2024-02-21T09:04:22;101631.50;;;9.31;100.00
48630;BME280;34426;52.180;4.462;2024-02-21T09:06:48;101610.25;;;9.30;100.00
48630;BME280;34426;52.180;4.462;2024-02-21T09:09:13;101605.75;;;9.29;100.00
48630;BME280;34426;52.180;4.462;2024-02-21T09:11:39;101594.13;;;9.32;100.00
48630;BME280;34426;52.180;4.462;2024-02-21T09:14:05;101599.09;;;9.30;100.00
48630;BME280;34426;52.180;4.462;2024-02-21T09:16:31;101596.44;;;9.36;100.00
48630;BME280;34426;52.180;4.462;2024-02-21T09:18:56;101582.34;;;9.30;100.00
48630;BME280;34426;52.180;4.462;2024-02-21T09:21:22;101589.50;;;9.38;100.00
48630;BME280;34426;52.180;4.462;2024-02-21T09:23:47;101572.88;;;9.43;100.00
48630;BME280;34426;52.180;4.462;2024-02-21T09:26:13;101558.69;;;9.45;100.00
48630;BME280;34426;52.180;4.462;2024-02-21T09:28:38;101546.53;;;9.51;100.00
48630;BME280;34426;52.180;4.462;2024-02-21T09:31:05;101542.03;;;9.50;100.00
48630;BME280;34426;52.180;4.462;2024-02-21T09:33:30;101534.59;;;9.55;100.00
48630;BME280;34426;52.180;4.462;2024-02-21T09:35:56;101533.44;;;9.40;100.00
48630;BME280;34426;52.180;4.462;2024-02-21T09:38:21;101526.88;;;9.46;100.00
48630;BME280;34426;52.180;4.462;2024-02-21T09:40:47;101524.69;;;9.48;100.00
48630;BME280;34426;52.180;4.462;2024-02-21T09:43:17;101515.41;;;9.59;100.00
48630;BME280;34426;52.180;4.462;2024-02-21T09:45:46;101521.13;;;9.64;100.00
48630;BME280;34426;52.180;4.462;2024-02-21T09:48:30;101500.47;;;9.65;100.00
48630;BME280;34426;52.180;4.462;2024-02-21T09:50:59;101499.63;;;9.64;100.00
48630;BME280;34426;52.180;4.462;2024-02-21T09:53:24;101497.19;;;9.68;100.00
48630;BME280;34426;52.180;4.462;2024-02-21T09:55:50;101487.00;;;9.62;100.00
48630;BME280;34426;52.180;4.462;2024-02-21T09:58:16;101487.72;;;9.69;100.00
48630;BME280;34426;52.180;4.462;2024-02-21T10:00:41;101471.56;;;9.71;100.00
48630;BME280;34426;52.180;4.462;2024-02-21T10:03:07;101474.34;;;9.71;100.00
48630;BME280;34426;52.180;4.462;2024-02-21T10:05:34;101475.06;;;9.78;100.00
48630;BME280;34426;52.180;4.462;2024-02-21T10:08:00;101462.69;;;9.74;100.00
48630;BME280;34426;52.180;4.462;2024-02-21T10:10:25;101445.06;;;9.74;100.00
48630;BME280;34426;52.180;4.462;2024-02-21T10:12:51;101446.03;;;9.79;100.00
48630;BME280;34426;52.180;4.462;2024-02-21T10:15:20;101442.63;;;9.77;100.00
48630;BME280;34426;52.180;4.462;2024-02-21T10:17:46;101428.56;;;9.72;100.00
48630;BME280;34426;52.180;4.462;2024-02-21T10:20:12;101425.63;;;9.79;100.00
48630;BME280;34426;52.180;4.462;2024-02-21T10:22:39;101428.03;;;9.87;100.00
48630;BME280;34426;52.180;4.462;2024-02-21T10:25:07;101427.28;;;9.91;100.00
48630;BME280;34426;52.180;4.462;2024-02-21T10:27:33;101420.41;;;9.99;100.00
48630;BME280;34426;52.180;4.462;2024-02-21T10:29:58;101417.31;;;9.95;100.00
48630;BME280;34426;52.180;4.462;2024-02-21T10:32:24;101421.09;;;9.89;100.00
48630;BME280;34426;52.180;4.462;2024-02-21T10:34:49;101424.50;;;9.91;100.00
48630;BME280;34426;52.180;4.462;2024-02-21T10:37:15;101426.09;;;9.87;100.00
48630;BME280;34426;52.180;4.462;2024-02-21T10:39:42;101430.47;;;9.83;100.00
48630;BME280;34426;52.180;4.462;2024-02-21T10:42:10;101429.03;;;9.81;100.00
48630;BME280;34426;52.180;4.462;2024-02-21T10:44:38;101430.50;;;9.72;100.00
48630;BME280;34426;52.180;4.462;2024-02-21T10:47:07;101428.94;;;9.64;100.00
48630;BME280;34426;52.180;4.462;2024-02-21T10:49:38;101413.53;;;9.61;100.00
48630;BME280;34426;52.180;4.462;2024-02-21T10:52:14;101417.19;;;9.62;100.00
48630;BME280;34426;52.180;4.462;2024-02-21T10:54:45;101396.19;;;9.59;100.00
48630;BME280;34426;52.180;4.462;2024-02-21T10:57:13;101400.91;;;9.59;100.00
48630;BME280;34426;52.180;4.462;2024-02-21T10:59:39;101402.00;;;9.58;100.00
48630;BME280;34426;52.180;4.462;2024-02-21T11:02:05;101393.88;;;9.56;100.00
48630;BME280;34426;52.180;4.462;2024-02-21T11:04:30;101383.91;;;9.60;100.00
48630;BME280;34426;52.180;4.462;2024-02-21T11:06:57;101365.44;;;9.59;100.00
48630;BME280;34426;52.180;4.462;2024-02-21T11:09:29;101363.38;;;9.66;100.00
48630;BME280;34426;52.180;4.462;2024-02-21T11:11:58;101332.38;;;9.68;100.00
48630;BME280;34426;52.180;4.462;2024-02-21T11:14:27;101333.78;;;9.82;100.00
48630;BME280;34426;52.180;4.462;2024-02-21T11:16:52;101344.84;;;9.77;100.00
48630;BME280;34426;52.180;4.462;2024-02-21T11:19:22;101344.84;;;9.77;100.00
48630;BME280;34426;52.180;4.462;2024-02-21T11:21:47;101343.84;;;9.83;100.00
48630;BME280;34426;52.180;4.462;2024-02-21T11:24:13;101347.44;;;9.95;100.00
48630;BME280;34426;52.180;4.462;2024-02-21T11:26:40;101333.53;;;10.00;100.00
48630;BME280;34426;52.180;4.462;2024-02-21T11:29:07;101321.34;;;10.07;100.00
48630;BME280;34426;52.180;4.462;2024-02-21T11:31:39;101311.75;;;10.02;100.00
48630;BME280;34426;52.180;4.462;2024-02-21T11:34:04;101323.03;;;10.08;100.00
48630;BME280;34426;52.180;4.462;2024-02-21T11:36:30;101312.38;;;10.05;100.00
48630;BME280;34426;52.180;4.462;2024-02-21T11:39:03;101277.63;;;10.00;100.00
48630;BME280;34426;52.180;4.462;2024-02-21T11:41:28;101298.13;;;10.06;100.00
48630;BME280;34426;52.180;4.462;2024-02-21T11:43:54;101285.09;;;10.12;100.00
48630;BME280;34426;52.180;4.462;2024-02-21T11:46:21;101281.75;;;10.26;100.00
48630;BME280;34426;52.180;4.462;2024-02-21T11:48:46;101279.69;;;10.39;99.67
48630;BME280;34426;52.180;4.462;2024-02-21T11:51:21;101267.34;;;10.56;99.48
48630;BME280;34426;52.180;4.462;2024-02-21T11:53:47;101257.72;;;10.47;97.88
48630;BME280;34426;52.180;4.462;2024-02-21T11:56:13;101247.25;;;10.59;97.94
48630;BME280;34426;52.180;4.462;2024-02-21T11:58:39;101242.69;;;10.53;97.37
48630;BME280;34426;52.180;4.462;2024-02-21T12:01:04;101221.94;;;10.49;97.15
48630;BME280;34426;52.180;4.462;2024-02-21T12:03:31;101216.28;;;10.44;97.11
48630;BME280;34426;52.180;4.462;2024-02-21T12:05:57;101211.06;;;10.31;97.21
48630;BME280;34426;52.180;4.462;2024-02-21T12:08:23;101204.47;;;10.37;97.13
48630;BME280;34426;52.180;4.462;2024-02-21T12:10:48;101198.03;;;10.37;96.96
48630;BME280;34426;52.180;4.462;2024-02-21T12:13:14;101192.88;;;10.28;96.90
48630;BME280;34426;52.180;4.462;2024-02-21T12:15:39;101183.19;;;10.36;97.22
48630;BME280;34426;52.180;4.462;2024-02-21T12:18:05;101167.44;;;10.30;96.96
48630;BME280;34426;52.180;4.462;2024-02-21T12:20:31;101151.00;;;10.33;97.02
48630;BME280;34426;52.180;4.462;2024-02-21T12:23:00;101143.31;;;10.24;95.99
48630;BME280;34426;52.180;4.462;2024-02-21T12:25:25;101136.50;;;10.37;96.71
48630;BME280;34426;52.180;4.462;2024-02-21T12:27:50;101131.53;;;10.44;96.94
48630;BME280;34426;52.180;4.462;2024-02-21T12:30:16;101128.47;;;10.45;97.15
48630;BME280;34426;52.180;4.462;2024-02-21T12:32:42;101113.28;;;10.36;96.73
48630;BME280;34426;52.180;4.462;2024-02-21T12:35:08;101116.78;;;10.26;97.07
48630;BME280;34426;52.180;4.462;2024-02-21T12:37:34;101112.56;;;10.24;98.14
48630;BME280;34426;52.180;4.462;2024-02-21T12:40:00;101098.25;;;10.20;98.12
48630;BME280;34426;52.180;4.462;2024-02-21T12:42:25;101097.25;;;10.10;98.81
48630;BME280;34426;52.180;4.462;2024-02-21T12:44:51;101087.69;;;10.06;99.34